Time;durP1;ratioP1;P1;durP2;ratioP2;P2;SDS_P1;SDS_P2;PMS_P1;PMS_P2;Temp;Humidity;BMP_temperature;BMP_pressure;BME280_temperature;BME280_humidity;BME280_pressure;Samples;Min_cycle;Max_cycle;Signal;HPM_P1;HPM_P2
2022/07/10 00:01:24;;;;;;;7.65;3.00;;;;;;;18.01;63.12;93005.78;4767837;30;20391;-74
2022/07/10 00:03:50;;;;;;;7.43;3.10;;;;;;;17.95;63.48;93001.78;4785541;30;20059;-74
2022/07/10 00:06:16;;;;;;;8.60;3.20;;;;;;;17.87;64.14;93013.94;4784962;29;20046;-74
2022/07/10 00:08:45;;;;;;;9.48;3.35;;;;;;;17.85;63.30;93014.25;4784566;30;20035;-74
2022/07/10 00:11:11;;;;;;;7.85;3.47;;;;;;;17.85;63.28;93008.19;4783259;30;20047;-74
2022/07/10 00:13:37;;;;;;;9.82;3.60;;;;;;;17.83;63.19;92999.78;4769183;30;20073;-74
2022/07/10 00:16:03;;;;;;;8.57;3.40;;;;;;;17.82;63.26;93006.94;4787852;29;20096;-74
2022/07/10 00:18:29;;;;;;;6.57;3.03;;;;;;;17.79;63.39;92994.34;4788272;30;20422;-74
2022/07/10 00:20:55;;;;;;;13.50;3.60;;;;;;;17.78;63.15;92999.94;4788683;30;20498;-74
2022/07/10 00:23:20;;;;;;;8.73;3.38;;;;;;;17.74;63.58;92997.13;4756239;30;20060;-74
2022/07/10 00:25:46;;;;;;;8.88;3.10;;;;;;;17.73;63.60;93000.13;4771763;30;20058;-74
2022/07/10 00:28:12;;;;;;;9.50;3.30;;;;;;;17.68;63.87;92993.91;4788082;30;20031;-74
2022/07/10 00:30:37;;;;;;;6.07;3.22;;;;;;;17.63;64.03;92991.44;4755278;30;20040;-74
2022/07/10 00:33:04;;;;;;;7.15;3.05;;;;;;;17.58;63.88;92988.94;4786423;30;20115;-74
2022/07/10 00:35:29;;;;;;;6.38;3.00;;;;;;;17.53;64.61;92991.78;4788422;29;20478;-74
2022/07/10 00:37:55;;;;;;;6.10;3.40;;;;;;;17.49;64.76;92988.19;4787590;30;20059;-74
2022/07/10 00:40:21;;;;;;;6.75;3.30;;;;;;;17.45;65.01;92985.41;4786223;30;20063;-74
2022/07/10 00:42:47;;;;;;;6.28;3.33;;;;;;;17.43;65.52;92986.84;4786760;30;20130;-73
2022/07/10 00:45:12;;;;;;;5.90;3.30;;;;;;;17.38;65.50;92986.97;4788152;29;20538;-74
2022/07/10 00:47:38;;;;;;;11.10;4.05;;;;;;;17.33;65.35;92982.63;4756449;30;20447;-73
2022/07/10 00:50:06;;;;;;;5.85;3.20;;;;;;;17.32;64.68;92982.97;4768541;30;20044;-74
2022/07/10 00:52:35;;;;;;;9.65;3.30;;;;;;;17.28;64.90;92986.22;4771490;30;20039;-74
2022/07/10 00:55:01;;;;;;;4.70;2.88;;;;;;;17.26;64.98;92977.84;4786942;29;20062;-74
2022/07/10 00:57:27;;;;;;;9.43;3.30;;;;;;;17.23;65.08;92972.41;4787425;30;20040;-73
2022/07/10 00:59:53;;;;;;;8.40;3.40;;;;;;;17.21;64.81;92975.34;4787920;30;20027;-74
2022/07/10 01:02:19;;;;;;;7.60;3.33;;;;;;;17.16;64.92;92975.53;4785681;30;20047;-74
2022/07/10 01:04:45;;;;;;;8.95;3.15;;;;;;;17.13;64.99;92972.72;4786442;29;20414;-74
2022/07/10 01:07:11;;;;;;;7.38;3.10;;;;;;;17.11;64.35;92975.69;4771782;30;20038;-74
2022/07/10 01:09:37;;;;;;;7.80;3.05;;;;;;;17.10;64.80;92968.84;4786958;30;20063;-74
2022/07/10 01:12:04;;;;;;;6.43;3.17;;;;;;;17.03;64.60;92965.91;4769858;30;20043;-74
2022/07/10 01:14:30;;;;;;;10.57;3.20;;;;;;;17.02;65.20;92967.00;4786619;29;20028;-74
2022/07/10 01:16:58;;;;;;;6.13;2.80;;;;;;;16.97;65.02;92960.00;4786229;30;20043;-74
2022/07/10 01:19:23;;;;;;;8.10;2.85;;;;;;;16.93;64.97;92958.28;4770927;30;20051;-74
2022/07/10 01:21:49;;;;;;;6.15;3.20;;;;;;;16.93;64.83;92955.66;4784890;30;20031;-74
2022/07/10 01:24:14;;;;;;;5.57;2.97;;;;;;;16.91;65.02;92952.53;4787637;29;20408;-74
2022/07/10 01:26:42;;;;;;;7.72;3.00;;;;;;;16.89;64.82;92957.34;4754207;30;20521;-74
2022/07/10 01:29:10;;;;;;;6.82;3.15;;;;;;;16.88;64.80;92961.09;4787441;30;20031;-74
2022/07/10 01:31:35;;;;;;;9.18;3.00;;;;;;;16.81;65.15;92949.13;4785434;30;20491;-74
2022/07/10 01:34:04;;;;;;;8.15;2.90;;;;;;;16.77;65.05;92958.75;4784627;30;20031;-74
2022/07/10 01:36:31;;;;;;;6.72;2.95;;;;;;;16.73;65.17;92944.63;4755482;30;20078;-74
2022/07/10 01:38:58;;;;;;;4.78;2.80;;;;;;;16.67;65.45;92948.50;4787714;30;20039;-73
2022/07/10 01:41:25;;;;;;;8.23;2.85;;;;;;;16.63;65.17;92950.97;4785853;30;20486;-74
2022/07/10 01:43:51;;;;;;;6.95;2.72;;;;;;;16.58;65.13;92948.50;4755574;30;20093;-74
2022/07/10 01:46:16;;;;;;;7.28;3.00;;;;;;;16.54;65.69;92946.78;4753644;30;20065;-74
2022/07/10 01:48:43;;;;;;;6.55;3.00;;;;;;;16.51;66.09;92939.50;4770934;30;20122;-74
2022/07/10 01:51:11;;;;;;;6.78;2.65;;;;;;;16.48;66.05;92938.22;4785648;30;21331;-74
2022/07/10 01:53:37;;;;;;;9.02;3.00;;;;;;;16.47;66.28;92935.94;4769049;30;20498;-74
2022/07/10 01:56:08;;;;;;;4.93;2.80;;;;;;;16.34;66.55;92927.81;4786944;29;20047;-73
2022/07/10 01:58:34;;;;;;;8.40;2.75;;;;;;;16.40;66.75;92941.66;4769783;30;20036;-73
2022/07/10 02:01:00;;;;;;;4.88;2.70;;;;;;;16.38;67.15;92938.56;4786794;30;20457;-73
2022/07/10 02:06:10;;;;;;;6.72;2.90;;;;;;;16.32;67.82;92929.22;4783643;29;20050;-73
2022/07/10 02:08:36;;;;;;;8.68;2.90;;;;;;;16.28;68.08;92929.09;4785889;30;20039;-74
2022/07/10 02:11:02;;;;;;;5.60;2.70;;;;;;;16.25;68.18;92929.69;4770412;30;20059;-74
2022/07/10 02:13:27;;;;;;;4.35;2.63;;;;;;;16.23;68.36;92926.56;4768877;30;20081;-74
2022/07/10 02:15:54;;;;;;;5.45;2.50;;;;;;;16.21;68.12;92928.75;4782462;29;20313;-73
2022/07/10 02:18:20;;;;;;;5.07;2.53;;;;;;;16.19;67.93;92925.66;4786612;30;20214;-73
2022/07/10 02:20:46;;;;;;;9.68;2.40;;;;;;;16.17;67.54;92914.63;4770130;30;20081;-74
2022/07/10 02:23:12;;;;;;;6.68;2.25;;;;;;;16.15;67.04;92917.56;4785012;30;20089;-74
2022/07/10 02:25:38;;;;;;;5.88;2.30;;;;;;;16.12;66.18;92915.56;4784452;29;20047;-73
2022/07/10 02:28:04;;;;;;;5.28;2.40;;;;;;;16.09;65.42;92921.44;4785288;30;20046;-74
2022/07/10 02:30:30;;;;;;;4.85;2.55;;;;;;;16.08;65.50;92921.78;4769752;30;20058;-73
2022/07/10 02:32:55;;;;;;;5.03;2.22;;;;;;;16.09;65.11;92923.31;4786431;30;20047;-73
2022/07/10 02:35:21;;;;;;;6.05;2.50;;;;;;;16.08;65.22;92921.78;4781056;29;20399;-74
2022/07/10 02:37:46;;;;;;;7.00;2.25;;;;;;;16.08;64.87;92919.91;4742844;30;20103;-74
2022/07/10 02:40:12;;;;;;;6.90;2.38;;;;;;;16.08;65.10;92919.13;4774683;30;20034;-74
2022/07/10 02:42:37;;;;;;;5.13;2.67;;;;;;;16.07;65.57;92920.19;4769410;30;20494;-74
2022/07/10 02:45:04;;;;;;;5.13;2.40;;;;;;;16.01;65.57;92920.34;4769063;30;20146;-74
2022/07/10 02:47:30;;;;;;;4.28;2.45;;;;;;;16.00;65.41;92921.44;4785717;30;20046;-73
2022/07/10 02:49:55;;;;;;;4.47;2.13;;;;;;;16.00;65.29;92912.75;4769016;30;20047;-73
2022/07/10 02:52:21;;;;;;;6.20;2.65;;;;;;;16.00;65.37;92918.03;4783579;30;20118;-74
2022/07/10 02:54:46;;;;;;;4.25;2.40;;;;;;;15.97;65.39;92924.69;4785505;29;20166;-73
2022/07/10 02:57:12;;;;;;;6.75;2.38;;;;;;;15.95;65.24;92921.59;4783856;30;20062;-73
2022/07/10 02:59:38;;;;;;;6.45;2.25;;;;;;;15.93;64.99;92918.47;4786001;30;20521;-73
2022/07/10 03:02:04;;;;;;;4.65;2.30;;;;;;;15.90;64.87;92919.09;4784541;30;20043;-74
2022/07/10 03:04:30;;;;;;;5.72;2.10;;;;;;;15.89;64.63;92916.75;4784970;30;20058;-73
2022/07/10 03:06:55;;;;;;;3.65;2.15;;;;;;;15.85;64.36;92916.63;4769135;30;20067;-73
2022/07/10 03:09:21;;;;;;;3.45;2.00;;;;;;;15.80;65.35;92916.75;4785716;30;20100;-73
2022/07/10 03:11:46;;;;;;;3.97;2.30;;;;;;;15.79;64.99;92912.56;4784912;30;20043;-74
2022/07/10 03:14:12;;;;;;;9.30;2.33;;;;;;;15.78;65.38;92908.34;4784330;29;20031;-73
2022/07/10 03:16:38;;;;;;;8.15;2.60;;;;;;;15.80;65.55;92914.09;4783713;30;20126;-74
2022/07/10 03:19:03;;;;;;;7.28;2.67;;;;;;;15.78;66.64;92910.97;4785803;30;20043;-74
2022/07/10 03:21:32;;;;;;;4.25;2.50;;;;;;;15.73;67.16;92914.53;4768941;30;20047;-73
2022/07/10 03:23:57;;;;;;;4.90;2.70;;;;;;;15.70;66.14;92909.09;4785227;30;20048;-74
2022/07/10 03:26:23;;;;;;;3.35;2.00;;;;;;;15.61;66.05;92915.13;4769164;30;20058;-74
2022/07/10 03:28:48;;;;;;;5.85;2.30;;;;;;;15.60;66.17;92912.78;4783539;30;20043;-74
2022/07/10 03:31:14;;;;;;;7.85;2.22;;;;;;;15.56;66.42;92912.63;4769816;30;20050;-74
2022/07/10 03:33:39;;;;;;;4.18;2.25;;;;;;;15.56;66.75;92910.00;4768781;30;20051;-74
2022/07/10 03:36:06;;;;;;;5.60;2.03;;;;;;;15.54;64.89;92912.16;4769614;30;20039;-73
2022/07/10 03:38:31;;;;;;;6.18;2.10;;;;;;;15.51;64.42;92915.38;4767180;30;20406;-73
2022/07/10 03:40:57;;;;;;;4.60;2.10;;;;;;;15.48;64.91;92910.72;4784437;30;20055;-73
2022/07/10 03:43:24;;;;;;;5.38;2.22;;;;;;;15.49;65.25;92914.13;4784123;30;20044;-74
2022/07/10 03:45:50;;;;;;;4.20;1.95;;;;;;;15.51;64.18;92904.81;4771072;30;20040;-73
2022/07/10 03:48:16;;;;;;;3.38;1.85;;;;;;;15.48;61.85;92910.72;4775655;30;20099;-73
2022/07/10 03:50:41;;;;;;;5.10;1.67;;;;;;;15.45;61.35;92914.00;4788030;29;20043;-73
2022/07/10 03:53:07;;;;;;;4.18;1.85;;;;;;;15.39;60.90;92900.13;4788378;30;20478;-73
2022/07/10 03:55:33;;;;;;;3.97;1.80;;;;;;;15.36;60.54;92900.00;4787702;29;20039;-74
2022/07/10 03:58:02;;;;;;;4.72;1.80;;;;;;;15.38;60.92;92897.84;4787609;30;20097;-73
2022/07/10 04:00:32;;;;;;;5.82;1.92;;;;;;;15.37;60.86;92901.53;4772248;30;20501;-73
2022/07/10 04:02:59;;;;;;;4.45;1.77;;;;;;;15.36;60.87;92900.00;4772788;30;20047;-74
2022/07/10 04:05:25;;;;;;;3.60;1.90;;;;;;;15.36;60.95;92906.03;4788075;29;20130;-73
2022/07/10 04:07:51;;;;;;;7.28;2.08;;;;;;;15.36;61.43;92897.34;4772505;30;20051;-73
2022/07/10 04:10:17;;;;;;;3.53;2.00;;;;;;;15.37;62.16;92898.91;4786725;30;20546;-73
2022/07/10 04:12:43;;;;;;;5.68;2.20;;;;;;;15.40;62.63;92896.44;4772586;30;20120;-73
2022/07/10 04:15:08;;;;;;;3.85;1.75;;;;;;;15.41;61.98;92892.69;4770139;30;20064;-73
2022/07/10 04:17:34;;;;;;;5.18;2.10;;;;;;;15.43;62.02;92894.28;4772581;30;20051;-74
2022/07/10 04:20:00;;;;;;;3.60;1.90;;;;;;;15.44;62.66;92896.59;4785484;30;20058;-73
2022/07/10 04:22:27;;;;;;;7.55;2.10;;;;;;;15.45;61.91;92895.53;4757721;30;20031;-74
2022/07/10 04:24:56;;;;;;;4.57;1.70;;;;;;;15.49;60.73;92888.56;4787567;29;20055;-73
2022/07/10 04:27:21;;;;;;;4.15;1.70;;;;;;;15.53;59.79;92889.47;4771398;30;20550;-73
2022/07/10 04:29:48;;;;;;;3.65;1.52;;;;;;;15.56;58.94;92891.53;4783256;30;20177;-73
2022/07/10 04:32:15;;;;;;;3.17;1.60;;;;;;;15.60;58.99;92892.47;4769356;30;20081;-73
2022/07/10 04:34:40;;;;;;;7.35;1.95;;;;;;;15.61;58.74;92886.09;4770916;30;20027;-73
2022/07/10 04:37:09;;;;;;;4.82;1.80;;;;;;;15.68;58.54;92887.50;4787507;30;20043;-73
2022/07/10 04:39:37;;;;;;;3.97;1.60;;;;;;;15.75;58.06;92895.78;4770847;30;20059;-73
2022/07/10 04:42:04;;;;;;;3.30;1.70;;;;;;;15.80;58.27;92890.34;4788340;30;20044;-74
2022/07/10 04:44:30;;;;;;;3.38;1.70;;;;;;;15.85;57.87;92873.56;4787433;29;20078;-74
2022/07/10 04:46:55;;;;;;;3.95;1.80;;;;;;;15.99;58.46;92882.16;4787636;30;20687;-73
2022/07/10 04:49:21;;;;;;;9.35;2.15;;;;;;;16.11;58.26;92887.59;4770843;30;20551;-74
2022/07/10 04:51:46;;;;;;;5.03;1.80;;;;;;;16.15;58.07;92877.97;4785149;30;20090;-73
2022/07/10 04:54:12;;;;;;;4.22;1.83;;;;;;;16.20;58.03;92884.94;4787496;29;20039;-74
2022/07/10 04:56:38;;;;;;;3.33;1.58;;;;;;;16.21;57.11;92882.00;4771419;30;20094;-73
2022/07/10 04:59:03;;;;;;;3.72;1.90;;;;;;;16.24;57.34;92880.59;4771060;30;20047;-73
2022/07/10 05:01:29;;;;;;;4.75;1.55;;;;;;;16.27;57.12;92885.25;4769510;30;20047;-73
2022/07/10 05:03:55;;;;;;;3.00;1.60;;;;;;;16.31;56.79;92883.56;4788002;30;20032;-73
2022/07/10 05:06:20;;;;;;;3.15;1.50;;;;;;;16.35;57.00;92887.13;4784551;29;20551;-74
2022/07/10 05:08:46;;;;;;;3.55;1.60;;;;;;;16.40;56.63;92888.84;4779227;30;20422;-74
2022/07/10 05:11:11;;;;;;;3.40;1.50;;;;;;;16.44;56.83;92885.25;4786829;30;20055;-73
2022/07/10 05:13:37;;;;;;;4.95;1.60;;;;;;;16.51;56.30;92884.00;4787769;30;20077;-74
2022/07/10 05:16:04;;;;;;;4.78;1.70;;;;;;;16.53;56.20;92876.56;4765655;30;20454;-74
2022/07/10 05:18:30;;;;;;;3.92;1.63;;;;;;;16.56;55.96;92881.19;4772341;30;20043;-74
2022/07/10 05:20:55;;;;;;;2.95;1.60;;;;;;;16.61;56.00;92878.38;4784507;30;20054;-74
2022/07/10 05:23:21;;;;;;;3.85;1.67;;;;;;;16.63;56.26;92878.84;4784046;30;20051;-73
2022/07/10 05:25:47;;;;;;;3.28;1.55;;;;;;;16.66;56.54;92878.22;4786698;29;20306;-73
2022/07/10 05:28:14;;;;;;;4.63;1.50;;;;;;;16.75;56.52;92876.34;4787872;30;20511;-73
2022/07/10 05:30:40;;;;;;;3.05;1.55;;;;;;;16.85;55.31;92872.63;4787967;30;20039;-73
2022/07/10 05:33:06;;;;;;;3.35;1.58;;;;;;;16.94;55.41;92876.00;4770995;30;20099;-73
2022/07/10 05:35:32;;;;;;;3.38;1.58;;;;;;;17.02;55.75;92877.88;4771773;30;20031;-73
2022/07/10 05:37:57;;;;;;;3.10;1.60;;;;;;;17.10;55.59;92873.63;4771968;30;20043;-74
2022/07/10 05:40:23;;;;;;;3.20;1.70;;;;;;;17.17;55.43;92876.56;4772166;30;20050;-74
2022/07/10 05:42:49;;;;;;;4.63;1.60;;;;;;;17.27;55.75;92878.09;4783326;30;20042;-74
2022/07/10 05:45:14;;;;;;;6.65;1.60;;;;;;;17.40;55.73;92874.44;4787650;29;20069;-74
2022/07/10 05:47:40;;;;;;;3.33;1.75;;;;;;;17.52;55.44;92868.47;4788987;30;20073;-74
2022/07/10 05:50:06;;;;;;;2.85;1.60;;;;;;;17.72;54.17;92871.47;4786840;30;20042;-74
2022/07/10 05:52:31;;;;;;;2.97;1.60;;;;;;;18.10;53.07;92876.69;4772027;30;20466;-74
2022/07/10 05:54:57;;;;;;;3.15;1.60;;;;;;;18.86;52.09;92865.00;4788405;29;20045;-75
2022/07/10 05:57:23;;;;;;;3.33;1.52;;;;;;;19.64;51.57;92876.59;4781941;30;20043;-75
2022/07/10 05:59:49;;;;;;;4.55;1.60;;;;;;;20.57;49.15;92873.22;4755769;30;20618;-75
2022/07/10 06:02:16;;;;;;;4.72;1.70;;;;;;;21.42;48.69;92864.00;4787270;30;20055;-74
2022/07/10 06:04:42;;;;;;;4.03;1.70;;;;;;;22.09;47.61;92871.22;4753032;30;20032;-75
2022/07/10 06:07:07;;;;;;;5.05;1.60;;;;;;;22.74;44.59;92859.97;4782695;30;20410;-75
2022/07/10 06:09:33;;;;;;;2.53;1.50;;;;;;;23.24;42.47;92849.44;4785041;30;20484;-75
2022/07/10 06:11:59;;;;;;;3.95;1.80;;;;;;;23.81;41.08;92853.00;4755048;29;20038;-75
2022/07/10 06:14:25;;;;;;;3.22;1.70;;;;;;;24.35;41.73;92855.66;4786756;29;20043;-75
2022/07/10 06:16:51;;;;;;;4.15;1.80;;;;;;;24.77;40.99;92854.63;4786355;29;20060;-75
2022/07/10 06:19:18;;;;;;;4.05;1.60;;;;;;;25.13;37.89;92856.53;4754796;30;20039;-75
2022/07/10 06:21:44;;;;;;;4.60;1.85;;;;;;;25.57;36.71;92854.25;4785064;30;20181;-75
2022/07/10 06:24:09;;;;;;;3.55;1.73;;;;;;;25.81;36.96;92848.31;4768513;29;20050;-75
2022/07/10 06:26:35;;;;;;;5.25;1.70;;;;;;;26.10;36.18;92848.53;4784861;29;20134;-75
2022/07/10 06:29:01;;;;;;;3.33;1.70;;;;;;;26.35;36.16;92838.69;4782153;30;20050;-75
2022/07/10 06:31:26;;;;;;;2.83;1.60;;;;;;;26.67;35.49;92840.75;4768218;30;20047;-75
2022/07/10 06:33:52;;;;;;;4.50;1.90;;;;;;;26.99;33.74;92840.06;4768367;30;20040;-75
2022/07/10 06:36:17;;;;;;;9.43;2.00;;;;;;;27.10;34.60;92838.16;4765450;30;20052;-76
2022/07/10 06:39:08;;;;;;;4.03;1.90;;;;;;;27.09;34.47;92835.84;4766480;30;20036;-78
2022/07/10 06:41:34;;;;;;;5.65;1.70;;;;;;;26.92;35.59;92835.44;4782400;30;20039;-79
2022/07/10 06:44:00;;;;;;;2.92;1.48;;;;;;;26.40;30.02;92834.88;4754826;30;20035;-76
2022/07/10 06:46:26;;;;;;;4.63;1.70;;;;;;;26.27;33.68;92833.66;4770367;30;20421;-76
2022/07/10 06:48:52;;;;;;;4.15;1.90;;;;;;;25.96;35.34;92841.13;4784939;30;20051;-77
2022/07/10 06:51:18;;;;;;;4.47;1.95;;;;;;;25.99;36.96;92835.03;4768726;30;20495;-76
2022/07/10 06:53:44;;;;;;;3.65;1.60;;;;;;;26.18;36.21;92834.00;4754476;30;20051;-77
2022/07/10 06:56:09;;;;;;;4.03;1.70;;;;;;;26.26;36.13;92838.25;4784271;29;20051;-76
2022/07/10 06:58:35;;;;;;;5.07;1.95;;;;;;;26.12;37.61;92832.81;4769401;30;20035;-77
2022/07/10 07:01:00;;;;;;;5.00;1.80;;;;;;;26.36;35.50;92832.16;4755389;30;20042;-79
2022/07/10 07:03:26;;;;;;;4.03;1.92;;;;;;;26.22;34.23;92832.09;4787913;30;20443;-77
2022/07/10 07:05:51;;;;;;;14.45;1.90;;;;;;;26.45;34.42;92834.50;4768270;30;20058;-77
2022/07/10 07:08:17;;;;;;;4.22;1.65;;;;;;;26.38;33.03;92827.19;4780070;29;20051;-77
2022/07/10 07:10:44;;;;;;;6.32;1.80;;;;;;;26.42;33.57;92823.75;4784709;29;20125;-77
2022/07/10 07:13:10;;;;;;;2.40;1.50;;;;;;;26.48;32.80;92819.53;4786101;30;20054;-77
2022/07/10 07:15:39;;;;;;;2.85;1.60;;;;;;;26.57;31.97;92812.72;4783930;29;20035;-76
2022/07/10 07:18:08;;;;;;;5.22;1.65;;;;;;;26.37;31.83;92812.25;4771660;29;20456;-77
2022/07/10 07:23:19;;;;;;;5.68;1.77;;;;;;;26.34;35.59;92813.00;4778603;29;20035;-76
2022/07/10 07:25:48;;;;;;;3.25;1.67;;;;;;;26.43;32.27;92811.88;4763999;30;20511;-77
2022/07/10 07:28:15;;;;;;;4.47;2.00;;;;;;;25.88;38.93;92812.75;4753525;29;20031;-76
2022/07/10 07:30:45;;;;;;;5.97;2.08;;;;;;;25.07;39.50;92809.78;4764236;30;20076;-77
2022/07/10 07:33:11;;;;;;;4.53;2.00;;;;;;;25.40;37.20;92813.56;4762865;30;20410;-77
2022/07/10 07:35:37;;;;;;;4.60;2.00;;;;;;;25.51;34.04;92803.69;4765830;30;20051;-77
2022/07/10 07:38:05;;;;;;;3.15;1.80;;;;;;;25.10;36.16;92805.59;4765307;30;20028;-77
2022/07/10 07:40:32;;;;;;;5.43;2.20;;;;;;;25.24;40.71;92797.75;4768482;30;20103;-77
2022/07/10 07:42:58;;;;;;;4.68;2.28;;;;;;;25.01;42.29;92802.47;4780213;30;20099;-78
2022/07/10 07:45:24;;;;;;;5.93;2.05;;;;;;;24.76;40.94;92794.19;4780864;29;20039;-76
2022/07/10 07:47:55;;;;;;;4.25;2.28;;;;;;;24.41;43.18;92801.47;4777618;30;20055;-76
2022/07/10 07:50:22;;;;;;;7.20;2.60;;;;;;;23.98;46.23;92797.47;4766889;30;20134;-77
2022/07/10 07:52:49;;;;;;;4.32;2.10;;;;;;;23.75;47.39;92797.56;4785347;30;20046;-77
2022/07/10 07:55:16;;;;;;;4.50;2.53;;;;;;;23.53;47.61;92801.78;4770003;30;20518;-77
2022/07/10 07:57:43;;;;;;;5.20;2.20;;;;;;;23.46;47.97;92797.91;4784346;30;20086;-77
2022/07/10 08:00:10;;;;;;;5.55;2.42;;;;;;;23.14;49.44;92791.28;4784290;30;20035;-77
2022/07/10 08:02:39;;;;;;;5.38;2.55;;;;;;;23.41;48.48;92790.16;4785108;30;20043;-77
2022/07/10 08:05:05;;;;;;;4.40;2.20;;;;;;;23.44;45.53;92797.50;4752773;30;20062;-76
2022/07/10 08:07:39;;;;;;;4.28;2.10;;;;;;;23.41;43.89;92792.84;4773998;30;20031;-77
2022/07/10 08:10:07;;;;;;;6.72;2.63;;;;;;;23.30;50.74;92786.56;4769715;30;20474;-77
2022/07/10 08:12:33;;;;;;;4.18;2.40;;;;;;;23.32;50.30;92784.31;4769586;30;20096;-76
2022/07/10 08:14:59;;;;;;;6.45;2.60;;;;;;;23.20;51.23;92793.28;4753593;30;20043;-77
2022/07/10 08:17:26;;;;;;;6.30;2.83;;;;;;;23.05;50.49;92786.94;4753735;30;20118;-77
2022/07/10 08:19:52;;;;;;;6.28;2.50;;;;;;;23.06;49.99;92785.81;4786014;30;20024;-77
2022/07/10 08:22:18;;;;;;;4.82;2.50;;;;;;;22.90;48.27;92787.81;4786179;30;20043;-77
2022/07/10 08:24:44;;;;;;;7.30;2.25;;;;;;;23.00;51.92;92781.91;4785774;29;20051;-77
2022/07/10 08:27:09;;;;;;;6.97;2.25;;;;;;;22.86;51.28;92777.06;4768991;30;20088;-76
2022/07/10 08:29:35;;;;;;;4.72;2.40;;;;;;;23.10;51.33;92785.88;4785226;30;20056;-77
2022/07/10 08:32:00;;;;;;;4.97;2.60;;;;;;;23.13;51.92;92789.75;4767951;30;20071;-77
2022/07/10 08:34:27;;;;;;;5.95;2.25;;;;;;;23.20;51.11;92785.28;4785634;29;20027;-76
2022/07/10 08:36:53;;;;;;;3.97;2.20;;;;;;;22.99;51.49;92790.22;4786275;29;20043;-77
2022/07/10 08:39:21;;;;;;;5.97;2.38;;;;;;;22.98;51.24;92773.44;4788551;30;20031;-76
2022/07/10 08:41:50;;;;;;;4.10;2.03;;;;;;;23.28;48.29;92775.47;4757655;30;20533;-76
2022/07/10 08:44:18;;;;;;;4.10;2.53;;;;;;;23.43;46.96;92782.56;4787106;29;20027;-77
2022/07/10 08:46:45;;;;;;;5.55;2.30;;;;;;;23.39;47.79;92765.72;4788388;30;20054;-77
2022/07/10 08:49:11;;;;;;;4.38;2.20;;;;;;;23.51;47.66;92762.09;4772256;30;20571;-77
2022/07/10 08:51:41;;;;;;;6.72;2.40;;;;;;;23.38;48.69;92758.84;4772200;30;20035;-77
2022/07/10 08:54:08;;;;;;;5.15;2.42;;;;;;;23.45;46.18;92766.19;4787771;29;20510;-77
2022/07/10 08:56:34;;;;;;;3.80;2.10;;;;;;;23.52;46.27;92762.84;4788387;30;20468;-77
2022/07/10 08:59:04;;;;;;;4.75;2.13;;;;;;;23.17;42.98;92758.50;4771283;30;20412;-77
2022/07/10 09:01:30;;;;;;;5.82;2.20;;;;;;;23.48;44.56;92758.25;4770608;30;20113;-77
2022/07/10 09:03:56;;;;;;;4.18;2.28;;;;;;;23.54;46.38;92758.69;4769013;30;20055;-77
2022/07/10 09:06:22;;;;;;;3.30;1.85;;;;;;;23.70;46.89;92758.53;4771520;30;20044;-76
2022/07/10 09:09:03;;;;;;;3.97;2.10;;;;;;;24.00;43.56;92757.78;4771211;30;20044;-77
2022/07/10 09:11:30;;;;;;;3.60;1.90;;;;;;;24.16;38.91;92753.03;4772302;29;20051;-77
2022/07/10 09:14:07;;;;;;;4.70;2.15;;;;;;;24.07;44.99;92755.19;4771620;30;20043;-77
2022/07/10 09:16:43;;;;;;;4.10;2.03;;;;;;;24.18;45.63;92748.06;4772087;30;20058;-77
2022/07/10 09:19:26;;;;;;;4.97;2.20;;;;;;;24.44;45.65;92749.13;4788594;30;20067;-77
2022/07/10 09:21:54;;;;;;;4.97;2.13;;;;;;;24.52;43.22;92748.09;4772357;30;20046;-77
2022/07/10 09:24:21;;;;;;;8.05;2.00;;;;;;;24.69;41.78;92750.16;4758259;29;20486;-77
2022/07/10 09:26:56;;;;;;;4.45;2.10;;;;;;;24.76;42.69;92746.78;4788544;30;20113;-77
2022/07/10 09:29:22;;;;;;;3.83;2.00;;;;;;;24.90;42.13;92743.47;4788658;30;20186;-78
2022/07/10 09:31:53;;;;;;;5.13;2.10;;;;;;;24.93;40.90;92745.41;4775278;30;20075;-77
2022/07/10 09:34:37;;;;;;;4.10;1.95;;;;;;;25.14;39.68;92740.22;4790083;29;20069;-77
2022/07/10 09:37:22;;;;;;;7.65;2.38;;;;;;;25.02;41.77;92742.44;4791835;30;20359;-78
2022/07/10 09:39:52;;;;;;;3.58;1.85;;;;;;;25.13;40.45;92737.94;4782606;29;20525;-78
2022/07/10 09:42:30;;;;;;;3.92;2.08;;;;;;;25.30;38.49;92736.53;4773256;30;20465;-78
2022/07/10 09:45:14;;;;;;;5.88;2.00;;;;;;;25.49;40.19;92738.97;4790301;30;20074;-78
2022/07/10 09:47:45;;;;;;;4.40;1.90;;;;;;;25.36;41.25;92735.06;4788295;29;20047;-78
2022/07/10 09:50:29;;;;;;;4.20;2.20;;;;;;;25.50;38.47;92735.13;4779239;30;20529;-79
2022/07/10 09:53:01;;;;;;;3.88;2.10;;;;;;;25.67;39.50;92738.28;4766015;29;20063;-79
2022/07/10 09:55:29;;;;;;;;;;;;;;;25.71;39.02;92739.88;4781337;30;20043;-78
2022/07/10 09:58:02;;;;;;;6.40;1.90;;;;;;;25.65;37.83;92740.59;4789584;30;19925;-78
2022/07/10 10:00:34;;;;;;;4.53;2.20;;;;;;;25.29;36.99;92732.34;4770633;30;20114;-78
2022/07/10 10:03:04;;;;;;;3.85;1.98;;;;;;;25.53;39.00;92734.41;4769858;30;20039;-78
2022/07/10 10:05:52;;;;;;;4.32;2.08;;;;;;;25.64;38.34;92733.69;4785887;29;20031;-78
2022/07/10 10:08:27;;;;;;;4.15;1.90;;;;;;;25.79;38.94;92729.94;4767938;30;20101;-79
2022/07/10 10:10:56;;;;;;;4.55;2.08;;;;;;;25.83;37.68;92722.69;4782155;30;20062;-78
2022/07/10 10:13:27;;;;;;;4.85;1.88;;;;;;;25.88;37.05;92721.59;4793669;30;20502;-80
2022/07/10 10:15:53;;;;;;;3.97;1.88;;;;;;;25.69;37.94;92712.66;4792644;29;20644;-81
2022/07/10 10:18:22;;;;;;;6.93;2.20;;;;;;;25.70;37.85;92710.75;4778011;30;20046;-79
2022/07/10 10:20:49;;;;;;;3.97;1.90;;;;;;;25.78;36.85;92715.00;4792454;30;20046;-79
2022/07/10 10:23:23;;;;;;;4.22;2.00;;;;;;;25.85;36.36;92711.56;4776449;30;20074;-79
2022/07/10 10:25:50;;;;;;;3.22;1.80;;;;;;;26.07;37.83;92715.16;4774686;30;20509;-79
2022/07/10 10:28:23;;;;;;;4.07;1.85;;;;;;;26.19;37.57;92714.81;4794423;30;20066;-79
2022/07/10 10:30:51;;;;;;;3.53;2.05;;;;;;;26.34;35.51;92712.94;4790227;30;20036;-79
2022/07/10 10:33:32;;;;;;;4.18;1.92;;;;;;;26.15;35.39;92709.44;4762879;30;20107;-79
2022/07/10 10:35:58;;;;;;;5.20;2.20;;;;;;;26.22;36.68;92707.94;4791907;30;20518;-79
2022/07/10 10:38:24;;;;;;;5.93;1.90;;;;;;;26.43;37.84;92705.28;4788345;29;20070;-82
2022/07/10 10:40:50;;;;;;;12.07;2.28;;;;;;;26.49;35.36;92703.78;4789298;30;20043;-79
2022/07/10 10:43:21;;;;;;;2.80;1.70;;;;;;;26.29;33.86;92703.34;4784848;29;20074;-80
2022/07/10 10:45:47;;;;;;;4.55;1.90;;;;;;;25.91;37.26;92696.69;4774744;30;20659;-79
2022/07/10 10:48:20;;;;;;;3.10;1.80;;;;;;;26.18;36.25;92702.53;4789285;29;20486;-78
2022/07/10 10:50:46;;;;;;;6.18;2.30;;;;;;;26.38;36.94;92702.97;4783916;29;20063;-78
2022/07/10 10:53:32;;;;;;;4.82;1.98;;;;;;;26.41;35.92;92693.41;4787153;30;20092;-79
2022/07/10 10:56:04;;;;;;;5.10;2.00;;;;;;;26.48;34.87;92694.19;4789836;29;20058;-78
2022/07/10 10:58:50;;;;;;;3.05;1.73;;;;;;;26.66;35.17;92686.19;4793679;29;20043;-79
2022/07/10 11:01:23;;;;;;;3.58;1.73;;;;;;;26.78;34.02;92685.81;4776927;30;20062;-79
2022/07/10 11:04:03;;;;;;;3.22;1.90;;;;;;;26.53;33.86;92679.63;4789293;29;20043;-79
2022/07/10 11:06:52;;;;;;;3.63;2.00;;;;;;;26.48;36.98;92685.34;4789187;29;20478;-79
2022/07/10 11:09:21;;;;;;;3.72;2.00;;;;;;;26.49;35.89;92673.47;4788402;30;20054;-79
2022/07/10 11:12:08;;;;;;;3.25;2.00;;;;;;;26.65;34.60;92679.28;4791816;30;20052;-79
2022/07/10 11:14:39;;;;;;;4.25;2.78;;;;;;;26.54;34.81;92679.22;4808146;29;20114;-79
2022/07/10 11:17:06;;;;;;;4.30;1.98;;;;;;;26.61;34.06;92675.06;4793183;29;20039;-78
2022/07/10 11:19:33;;;;;;;3.03;1.83;;;;;;;26.51;33.78;92671.19;4793451;30;20032;-78
2022/07/10 11:22:33;;;;;;;3.83;2.00;;;;;;;26.36;33.65;92673.06;4758893;30;20047;-79
2022/07/10 11:25:49;;;;;;;3.60;1.80;;;;;;;26.50;35.30;92662.38;4788281;29;20039;-78
2022/07/10 11:28:22;;;;;;;4.75;1.77;;;;;;;26.61;34.69;92665.06;4775686;30;20043;-78
2022/07/10 11:30:54;;;;;;;3.42;1.90;;;;;;;26.69;34.98;92660.50;4784784;30;20491;-78
2022/07/10 11:33:21;;;;;;;3.90;2.08;;;;;;;26.57;33.91;92653.59;4757666;30;20055;-78
2022/07/10 11:35:52;;;;;;;5.78;1.83;;;;;;;26.57;34.44;92654.34;4776755;30;20112;-78
2022/07/10 11:38:24;;;;;;;3.70;1.98;;;;;;;26.52;33.76;92653.91;4794201;29;20039;-78
2022/07/10 11:40:53;;;;;;;4.55;2.25;;;;;;;26.51;32.46;92653.16;4776061;30;20138;-79
2022/07/10 11:43:22;;;;;;;4.35;2.22;;;;;;;26.68;33.08;92664.31;4793331;30;20467;-78